Buoy 41991

sailwx.info

Track history (hours):
 
Tides and Currents Weather Stations Pressure Air Temp Water Temp Dewpoint Dewpoint Depression Visibility Wind Speed Wind Dir Waves Ship Positions

Drifting buoy 41991

Last reported at 2017-Jan-19 22:16 UTC. Time now 2017-Jan-19 23:31 UTC.
Position N 25°52' W 058°54'.

Water temperature 24.2 ° C

Date/timePositionNaut miles runAvg speedWind from/ knotsBaromVisibWave heightAir tempDewpointWater temp
2017-Jan-19 22:16N 25°52' W 058°54'0 0.0 24.2
2017-Jan-19 22:12N 25°52' W 058°54'1 0.6 24.2
2017-Jan-19 20:56N 25°52' W 058°53'0 0.0 24.2
2017-Jan-19 20:47N 25°52' W 058°53'1 5.7 24.2
2017-Jan-19 20:34N 25°52' W 058°55'2 4.5 24.2
2017-Jan-19 20:11N 25°51' W 058°56'0 0.0 24.2
2017-Jan-19 18:33N 25°51' W 058°56'0 0.0 24.2
2017-Jan-19 18:22N 25°51' W 058°56'4 2.7 24.2
2017-Jan-19 16:48N 25°49' W 059°01'0 0.0 24.2
2017-Jan-19 15:36N 25°49' W 059°01'1 0.7 24.2
2017-Jan-19 14:52N 25°49' W 059°00'1 1.0 24.2
2017-Jan-19 14:02N 25°49' W 059°01'1 0.7 24.2
2017-Jan-19 13:17N 25°49' W 059°01'1 3.6 24.2
2017-Jan-19 13:08N 25°49' W 059°02'0 0.0 24.2
2017-Jan-19 12:36N 25°49' W 059°02'0 0.0 24.2
2017-Jan-19 12:33N 25°49' W 059°02'0 0.0 24.2
2017-Jan-19 12:17N 25°49' W 059°02'1 0.8 24.2
2017-Jan-19 11:20N 25°48' W 059°02'1 1.2 24.2
2017-Jan-19 10:53N 25°48' W 059°03'0 0.0 24.1
2017-Jan-19 10:07N 25°48' W 059°03'1 6.0 24.2
2017-Jan-19 10:01N 25°47' W 059°03'0 0.0 24.2
2017-Jan-19 09:43N 25°47' W 059°03'0 0.0 24.2
2017-Jan-19 09:34N 25°47' W 059°03'1 1.4 24.2
2017-Jan-19 09:11N 25°47' W 059°04'0 0.0 24.2
2017-Jan-19 08:50N 25°47' W 059°04'0 0.0 24.2
2017-Jan-19 08:28N 25°47' W 059°04'1 9.3 24.2
2017-Jan-19 08:21N 25°47' W 059°05'0 0.0 24.2
2017-Jan-19 07:06N 25°47' W 059°05'179.0 24.1
2017-Jan-19 07:05N 25°46' W 059°05'0 0.0 24.1
2017-Jan-19 05:27N 25°46' W 059°05'0 0.0 24.2
2017-Jan-19 02:25N 25°46' W 059°05'0 0.0 24.2
2017-Jan-19 01:37N 25°46' W 059°05'1 5.4 24.2
2017-Jan-19 01:31N 25°46' W 059°06'0 0.0 24.2
2017-Jan-19 00:48N 25°46' W 059°06'1 7.2 24.2
2017-Jan-19 00:43N 25°46' W 059°06'0 0.0 24.2
2017-Jan-19 00:07N 25°46' W 059°06'1 3.5 24.2
2017-Jan-18 23:53N 25°46' W 059°05'0 0.0 24.2
2017-Jan-18 23:50N 25°46' W 059°05'1 0.6 24.2
2017-Jan-18 22:52N 25°46' W 059°06'0 0.0 24.2
2017-Jan-18 22:27N 25°46' W 059°06'0 0.0 24.2
2017-Jan-18 22:22N 25°46' W 059°06'1 0.6 24.2
2017-Jan-18 21:20N 25°47' W 059°06'1 6.9 24.2
2017-Jan-18 21:13N 25°46' W 059°05'0 0.0 24.2
2017-Jan-18 20:48N 25°46' W 059°05'1 1.3 24.2
2017-Jan-18 20:21N 25°47' W 059°05'1 0.5 24.2
2017-Jan-18 18:39N 25°47' W 059°05'110.8 24.2
2017-Jan-18 18:36N 25°47' W 059°05'1 0.5 24.2
2017-Jan-18 16:59N 25°48' W 059°06'0 0.0 24.2
2017-Jan-18 15:12N 25°48' W 059°06'0 0.0 24.1
2017-Jan-18 14:22N 25°48' W 059°06'1 5.1 24.1
2017-Jan-18 14:15N 25°49' W 059°06'1 1.5 24.1
2017-Jan-18 13:31N 25°49' W 059°07'1 1.1 24.1
2017-Jan-18 12:48N 25°49' W 059°07'116.2 24.1
2017-Jan-18 12:44N 25°49' W 059°08'113.0 24.1
2017-Jan-18 12:39N 25°49' W 059°07'1 1.2 24.1
2017-Jan-18 11:45N 25°49' W 059°08'0 0.0 24.1
2017-Jan-18 11:08N 25°49' W 059°08'0 0.0 24.1
2017-Jan-18 11:01N 25°49' W 059°08'0 0.0 24.1
2017-Jan-18 10:38N 25°49' W 059°08'1 3.3 24.1
2017-Jan-18 10:27N 25°50' W 059°08'0 0.0
2017-Jan-18 10:07N 25°50' W 059°08'116.1 24.1
2017-Jan-18 10:04N 25°49' W 059°07'1 6.5 24.1
2017-Jan-18 09:59N 25°49' W 059°08'0 0.0 24.1
2017-Jan-18 09:30N 25°49' W 059°08'1 7.2 24.1
2017-Jan-18 09:25N 25°50' W 059°08'0 0.0 24.1
2017-Jan-18 08:53N 25°50' W 059°08'1 1.0 24.1
2017-Jan-18 08:22N 25°50' W 059°08'0 0.0 24.1
2017-Jan-18 07:23N 25°50' W 059°08'2 1.2 24.1
2017-Jan-18 05:38N 25°51' W 059°10'0 0.0 24.1
2017-Jan-18 01:53N 25°51' W 059°10'148.4 24.1
2017-Jan-18 01:52N 25°50' W 059°11'0 0.0 24.1
2017-Jan-18 01:07N 25°50' W 059°11'124.2 24.1
2017-Jan-18 01:05N 25°51' W 059°10'0 0.0 24.1
2017-Jan-18 00:15N 25°51' W 059°10'0 0.0 24.1
2017-Jan-18 00:10N 25°51' W 059°10'0 0.0 24.1
2017-Jan-17 23:29N 25°51' W 059°10'0 0.0 24.1
2017-Jan-17 23:25N 25°51' W 059°10'0 0.0 24.1
2017-Jan-17 23:24N 25°51' W 059°10'1 0.7 24.1
2017-Jan-17 22:35N 25°51' W 059°11'0 0.0 24.1
2017-Jan-17 21:51N 25°51' W 059°11'0 0.0 24.1
2017-Jan-17 21:46N 25°51' W 059°11'1 4.5 24.1
2017-Jan-17 21:38N 25°52' W 059°11'1 1.0 24.1
2017-Jan-17 21:01N 25°51' W 059°11'0 0.0 24.1
2017-Jan-17 20:57N 25°51' W 059°11'1 7.2 24.1
2017-Jan-17 20:52N 25°52' W 059°11'1 1.7 24.1
2017-Jan-17 20:31N 25°51' W 059°11'0 0.0 24.1
2017-Jan-17 20:04N 25°51' W 059°11'1 0.7 24.1
2017-Jan-17 18:53N 25°52' W 059°11'113.2 24.1
2017-Jan-17 18:47N 25°53' W 059°12'0 0.0 24.1
2017-Jan-17 17:07N 25°53' W 059°12'0 0.0 24.1
2017-Jan-17 14:41N 25°53' W 059°12'112.0 24.1
2017-Jan-17 14:38N 25°53' W 059°12'1 0.7 24.1
2017-Jan-17 13:51N 25°53' W 059°13'1 0.7 24.1
2017-Jan-17 12:59N 25°54' W 059°13'0 0.0 24.0
2017-Jan-17 12:04N 25°54' W 059°13'0 0.0 24.0
2017-Jan-17 11:23N 25°54' W 059°13'1 2.9 24.0
2017-Jan-17 11:12N 25°54' W 059°13'0 0.0 24.0
2017-Jan-17 11:07N 25°54' W 059°13'1 1.4 24.0
2017-Jan-17 10:33N 25°55' W 059°13'0 0.0 24.0
2017-Jan-17 10:30N 25°55' W 059°13'1 0.6 24.0
2017-Jan-17 09:38N 25°55' W 059°13'0 0.0
2017-Jan-17 09:36N 25°55' W 059°13'0 0.0 23.9
2017-Jan-17 09:27N 25°55' W 059°13'0 0.0 23.9
2017-Jan-17 09:24N 25°55' W 059°13'1 1.1 23.9
2017-Jan-17 08:52N 25°55' W 059°13'1 4.5 23.9
2017-Jan-17 08:44N 25°56' W 059°13'0 0.0 23.9
2017-Jan-17 07:47N 25°56' W 059°13'0 0.0 23.9
2017-Jan-17 07:33N 25°56' W 059°13'2 9.4 23.9
2017-Jan-17 07:22N 25°56' W 059°15'1 0.4
2017-Jan-17 05:50N 25°57' W 059°15'2 0.6 23.9
2017-Jan-17 02:17N 25°58' W 059°17'0 0.0 23.8
2017-Jan-17 02:14N 25°58' W 059°17'0 0.0 23.8
2017-Jan-17 02:10N 25°58' W 059°17'0 0.0 23.8
2017-Jan-17 01:31N 25°58' W 059°17'0 0.0 23.8
2017-Jan-17 01:24N 25°58' W 059°17'0 0.0 23.8
2017-Jan-17 00:39N 25°58' W 059°17'0 0.0 23.8
2017-Jan-17 00:36N 25°58' W 059°17'1 0.8 23.8
2017-Jan-16 23:53N 25°58' W 059°17'1 8.1 23.8
2017-Jan-16 23:49N 25°58' W 059°18'0 0.0 23.8
2017-Jan-16 23:42N 25°58' W 059°18'0 0.0 23.8
2017-Jan-16 22:52N 25°58' W 059°18'0 0.0 23.8
2017-Jan-16 22:51N 25°58' W 059°18'0 0.0 23.8
2017-Jan-16 22:47N 25°58' W 059°18'0 0.0 23.8
2017-Jan-16 22:20N 25°58' W 059°18'0 0.0 23.8
2017-Jan-16 22:06N 25°58' W 059°18'114.8 23.8
2017-Jan-16 22:01N 25°59' W 059°19'0 0.0 23.8
2017-Jan-16 21:13N 25°59' W 059°19'0 0.0 23.8
2017-Jan-16 21:07N 25°59' W 059°19'1 5.1 23.8
2017-Jan-16 21:00N 25°59' W 059°19'1 1.8
2017-Jan-16 20:42N 25°59' W 059°19'116.2 23.8
2017-Jan-16 20:40N 25°59' W 059°19'1 3.2 23.8
2017-Jan-16 20:30N 25°59' W 059°19'1 8.2 23.8
2017-Jan-16 20:21N 26°00' W 059°20'0 0.0 23.9
2017-Jan-16 19:04N 26°00' W 059°20'124.7 23.9
2017-Jan-16 19:01N 26°01' W 059°21'0 0.0 23.9
2017-Jan-16 17:24N 26°01' W 059°21'1 4.6 23.8
2017-Jan-16 17:17N 26°01' W 059°22'1 0.3 23.8
2017-Jan-16 15:03N 26°01' W 059°22'121.6 23.7
2017-Jan-16 15:00N 26°01' W 059°23'0 0.0 23.7
2017-Jan-16 14:19N 26°01' W 059°23'0 0.0 23.7
2017-Jan-16 14:15N 26°01' W 059°23'0 0.0 23.7
2017-Jan-16 14:10N 26°01' W 059°23'0 0.0 23.7
2017-Jan-16 13:22N 26°01' W 059°23'1 0.6 23.7
2017-Jan-16 11:38N 26°01' W 059°24'0 0.0 23.6
2017-Jan-16 11:33N 26°01' W 059°24'220.7 23.6
2017-Jan-16 11:28N 26°01' W 059°22'4 2.5 23.6
2017-Jan-16 10:00N 25°57' W 059°23'110.3 23.6
2017-Jan-16 09:53N 25°58' W 059°23'0 0.0 23.6
2017-Jan-16 08:22N 25°58' W 059°23'610.6 23.7
2017-Jan-16 07:48N 26°04' W 059°23'3 0.6 23.7
2017-Jan-16 02:38N 26°02' W 059°25'1 8.1 23.7
2017-Jan-16 02:34N 26°02' W 059°25'1 0.7 23.7
2017-Jan-16 01:46N 26°02' W 059°25'0 0.0 23.7
2017-Jan-16 00:53N 26°02' W 059°25'1 1.0 23.7
2017-Jan-16 00:06N 26°02' W 059°25'0 0.0 23.7
2017-Jan-15 23:16N 26°02' W 059°25'1 2.0 23.7
2017-Jan-15 23:00N 26°02' W 059°25'116.1 23.7
2017-Jan-15 22:57N 26°02' W 059°25'0 0.0 23.7
2017-Jan-15 22:51N 26°02' W 059°25'0 0.0 23.7
2017-Jan-15 22:46N 26°02' W 059°25'0 0.0 23.7
2017-Jan-15 22:27N 26°02' W 059°25'0 0.0 23.7
2017-Jan-15 21:24N 26°02' W 059°25'1 7.2 23.8
2017-Jan-15 21:19N 26°02' W 059°25'1 5.4 23.8
2017-Jan-15 21:13N 26°02' W 059°25'0 0.0 23.8
2017-Jan-15 20:54N 26°02' W 059°25'1 4.6 23.8
2017-Jan-15 20:47N 26°02' W 059°25'1 0.4 23.8
2017-Jan-15 19:16N 26°03' W 059°25'0 0.0 23.8
2017-Jan-15 19:07N 26°03' W 059°25'0 0.0 23.8
2017-Jan-15 17:36N 26°03' W 059°25'0 0.0 23.8
2017-Jan-15 17:32N 26°03' W 059°25'116.1 23.8
2017-Jan-15 17:29N 26°04' W 059°24'0 0.0 23.8
2017-Jan-15 15:19N 26°04' W 059°24'0 0.0 23.8
2017-Jan-15 14:38N 26°04' W 059°24'0 0.0 23.8
2017-Jan-15 14:34N 26°04' W 059°24'0 0.0 23.8
2017-Jan-15 13:42N 26°04' W 059°24'0 0.0 23.8
2017-Jan-15 12:58N 26°04' W 059°24'1 8.1 23.8
2017-Jan-15 12:52N 26°04' W 059°23'1 0.5 23.8
2017-Jan-15 11:46N 26°04' W 059°24'0 0.0 23.8
2017-Jan-15 11:41N 26°04' W 059°24'0 0.0 23.8
2017-Jan-15 11:37N 26°04' W 059°24'0 0.0 23.8
2017-Jan-15 11:23N 26°04' W 059°24'0 0.0 23.7
2017-Jan-15 11:20N 26°04' W 059°24'1 8.1 23.7
2017-Jan-15 11:14N 26°04' W 059°23'0 0.0 23.7
2017-Jan-15 10:33N 26°04' W 059°23'0 0.0 23.7
2017-Jan-15 10:30N 26°04' W 059°23'1 3.6 23.7
2017-Jan-15 10:21N 26°04' W 059°24'0 0.0
2017-Jan-15 10:05N 26°04' W 059°24'1 5.4 23.8
2017-Jan-15 09:59N 26°04' W 059°23'0 0.0 23.8
2017-Jan-15 09:42N 26°04' W 059°23'0 0.0 23.8
2017-Jan-15 09:34N 26°04' W 059°23'0 0.0 23.8
2017-Jan-15 08:50N 26°04' W 059°23'1 9.0 23.8
2017-Jan-15 08:46N 26°04' W 059°23'0 0.0 23.8
2017-Jan-15 07:53N 26°04' W 059°23'1 0.5 23.8
2017-Jan-15 06:11N 26°05' W 059°24'1 0.3 23.8
2017-Jan-15 02:05N 26°05' W 059°23'0 0.0 23.8
2017-Jan-15 01:19N 26°05' W 059°23'1 6.0 23.8
2017-Jan-15 01:13N 26°05' W 059°23'0 0.0 23.8
2017-Jan-15 00:34N 26°05' W 059°23'1 3.6 23.8
2017-Jan-15 00:25N 26°05' W 059°22'0 0.0 23.8
2017-Jan-14 23:39N 26°05' W 059°22'1 9.0 23.8
2017-Jan-14 23:35N 26°05' W 059°22'0 0.0 23.8
2017-Jan-14 23:23N 26°05' W 059°22'1 3.6 23.8
2017-Jan-14 23:14N 26°05' W 059°22'0 0.0 23.8
2017-Jan-14 23:08N 26°05' W 059°22'0 0.0 23.8
2017-Jan-14 22:52N 26°05' W 059°22'0 0.0 23.8
2017-Jan-14 21:43N 26°05' W 059°22'0 0.0 23.8
2017-Jan-14 21:36N 26°05' W 059°22'0 0.0 23.8
2017-Jan-14 21:32N 26°05' W 059°22'110.8 23.8
2017-Jan-14 21:29N 26°05' W 059°22'1 3.6 23.8
2017-Jan-14 21:20N 26°05' W 059°22'1 6.0
2017-Jan-14 21:12N 26°05' W 059°21'0 0.0 23.8
2017-Jan-14 19:27N 26°05' W 059°21'0 0.0 23.8
2017-Jan-14 19:22N 26°05' W 059°21'0 0.0 23.8
2017-Jan-14 17:49N 26°05' W 059°21'1 9.7 23.9
2017-Jan-14 17:44N 26°06' W 059°20'119.7 23.9
2017-Jan-14 17:40N 26°07' W 059°20'1 0.3 23.9
2017-Jan-14 14:53N 26°07' W 059°20'1 1.0 23.8
2017-Jan-14 14:04N 26°07' W 059°20'1 0.7 23.9
2017-Jan-14 13:20N 26°07' W 059°20'1 7.2 23.8
2017-Jan-14 13:15N 26°07' W 059°20'1 1.1 23.8
2017-Jan-14 12:17N 26°07' W 059°19'1 1.5 23.8
2017-Jan-14 11:53N 26°07' W 059°19'0 0.0 23.8
2017-Jan-14 11:42N 26°07' W 059°19'1 0.8 23.8
2017-Jan-14 11:03N 26°07' W 059°20'1 8.1 23.8
2017-Jan-14 10:55N 26°07' W 059°19'0 0.0 23.8
2017-Jan-14 10:18N 26°07' W 059°19'1 3.3 23.8
2017-Jan-14 10:07N 26°07' W 059°19'1 3.6 23.8
2017-Jan-14 09:57N 26°07' W 059°19'0 0.0 23.8
2017-Jan-14 09:23N 26°07' W 059°19'0 0.0
2017-Jan-14 09:21N 26°07' W 059°19'0 0.0 23.8
2017-Jan-14 09:16N 26°07' W 059°19'0 0.0 23.8
2017-Jan-14 08:06N 26°07' W 059°19'0 0.0 23.8
2017-Jan-14 08:04N 26°07' W 059°19'2 0.4 23.8
2017-Jan-14 02:25N 26°08' W 059°16'0 0.0 23.9
2017-Jan-14 01:35N 26°08' W 059°16'132.3 23.9
2017-Jan-14 01:34N 26°08' W 059°16'0 0.0 24.0
2017-Jan-14 00:53N 26°08' W 059°16'1 8.1
2017-Jan-14 00:49N 26°08' W 059°16'1 0.6 24.0
2017-Jan-13 23:59N 26°08' W 059°16'1 4.6 24.0
2017-Jan-13 23:52N 26°08' W 059°15'0 0.0 24.0
2017-Jan-13 23:50N 26°08' W 059°15'1 1.4 24.0
2017-Jan-13 23:25N 26°08' W 059°15'1 9.7 24.0
2017-Jan-13 23:20N 26°08' W 059°14'0 0.0 24.0
2017-Jan-13 22:16N 26°08' W 059°14'1 8.1 24.0
2017-Jan-13 22:12N 26°08' W 059°14'110.8 24.0
2017-Jan-13 22:09N 26°08' W 059°14'1 1.3 24.0
2017-Jan-13 21:45N 26°08' W 059°14'1 6.5 24.0
2017-Jan-13 21:40N 26°08' W 059°13'0 0.0 24.0
2017-Jan-13 20:32N 26°08' W 059°13'1 0.6 24.1
2017-Jan-13 19:37N 26°08' W 059°13'114.8 24.1
2017-Jan-13 19:32N 26°09' W 059°11'1 0.5 24.1
2017-Jan-13 17:54N 26°08' W 059°12'3 1.1 24.1
2017-Jan-13 15:17N 26°10' W 059°09'1 0.6 24.1
2017-Jan-13 14:27N 26°10' W 059°08'0 0.0 24.1
2017-Jan-13 14:20N 26°10' W 059°08'0 0.0 24.1
2017-Jan-13 13:40N 26°10' W 059°08'1 7.2 24.1
2017-Jan-13 13:35N 26°10' W 059°08'1 1.3 24.1
2017-Jan-13 12:45N 26°10' W 059°07'0 0.0 24.1
2017-Jan-13 12:43N 26°10' W 059°07'1 6.5 24.1
2017-Jan-13 12:38N 26°10' W 059°07'0 0.0 24.1
2017-Jan-13 12:08N 26°10' W 059°07'0 0.0 24.1
2017-Jan-13 12:04N 26°10' W 059°07'1 1.4 24.1
2017-Jan-13 11:30N 26°11' W 059°06'1 0.5 24.1
2017-Jan-13 10:22N 26°11' W 059°05'1 0.8 24.2
2017-Jan-13 08:51N 26°11' W 059°04'1 1.4 24.2
2017-Jan-13 08:16N 26°12' W 059°04'4 0.7 24.2
2017-Jan-13 02:00N 26°14' W 058°59'1 9.2 24.1
2017-Jan-13 01:52N 26°15' W 058°58'0 0.0 24.1
2017-Jan-13 01:06N 26°15' W 058°58'0 0.0 24.1
2017-Jan-13 00:21N 26°15' W 058°58'0 0.0 24.1
2017-Jan-13 00:18N 26°15' W 058°58'0 0.0 24.1
2017-Jan-13 00:14N 26°15' W 058°58'0 0.0 24.1
2017-Jan-12 23:37N 26°15' W 058°58'0 0.0 24.1
2017-Jan-12 23:28N 26°15' W 058°58'1 1.2 24.1
2017-Jan-12 22:47N 26°16' W 058°58'1 3.6 24.1
2017-Jan-12 22:38N 26°16' W 058°57'0 0.0 24.1
2017-Jan-12 22:11N 26°16' W 058°57'0 0.0 24.1
2017-Jan-12 22:01N 26°16' W 058°57'0 0.0 24.1
2017-Jan-12 21:53N 26°16' W 058°57'148.4
2017-Jan-12 21:52N 26°16' W 058°56'0 0.0 24.1
2017-Jan-12 21:02N 26°16' W 058°56'1 2.1 24.1
2017-Jan-12 20:26N 26°17' W 058°55'0 0.0 24.1
2017-Jan-12 20:15N 26°17' W 058°55'0 0.0 24.1
2017-Jan-12 19:50N 26°17' W 058°55'1 6.9 24.1
2017-Jan-12 19:43N 26°17' W 058°55'0 0.0 24.1
2017-Jan-12 18:07N 26°17' W 058°55'0 0.0 24.1
2017-Jan-12 18:05N 26°17' W 058°55'3 1.0 24.1
2017-Jan-12 14:47N 26°20' W 058°52'1 9.7 24.1
2017-Jan-12 14:42N 26°20' W 058°52'0 0.0 24.1
2017-Jan-12 14:03N 26°20' W 058°52'0 0.0 24.1
2017-Jan-12 13:59N 26°20' W 058°52'248.3 24.1
2017-Jan-12 13:57N 26°22' W 058°50'0 0.0 24.1
2017-Jan-12 13:04N 26°22' W 058°50'0 0.0 24.1
2017-Jan-12 12:17N 26°22' W 058°50'2 1.2 24.1
2017-Jan-12 10:54N 26°23' W 058°49'1 2.2 24.1
2017-Jan-12 10:39N 26°23' W 058°50'1 6.5 24.1
2017-Jan-12 10:34N 26°23' W 058°49'1 5.1 24.1
2017-Jan-12 10:27N 26°23' W 058°49'1 6.9 24.1
2017-Jan-12 10:20N 26°24' W 058°49'0 0.0 24.1
2017-Jan-12 09:10N 26°24' W 058°49'0 0.0 24.1
2017-Jan-12 08:52N 26°24' W 058°49'0 0.0 24.1
2017-Jan-12 08:47N 26°24' W 058°49'0 0.0 24.1
2017-Jan-12 08:40N 26°24' W 058°49'0 0.0 24.1
2017-Jan-12 08:29N 26°24' W 058°49'6 3.2 24.1
2017-Jan-12 06:46N 26°29' W 058°46'0 0.0 24.2
2017-Jan-12 02:22N 26°29' W 058°46'112.3 24.1
2017-Jan-12 02:16N 26°29' W 058°44'0 0.0 24.1
2017-Jan-12 01:34N 26°29' W 058°44'110.5 24.2
2017-Jan-12 01:27N 26°30' W 058°46'0 0.0 24.2
2017-Jan-12 00:42N 26°30' W 058°46'111.3 24.1
2017-Jan-12 00:35N 26°31' W 058°45'0 0.0 24.1
2017-Jan-11 23:56N 26°31' W 058°45'1 9.0 24.2
2017-Jan-11 23:52N 26°31' W 058°45'0 0.0 24.1
2017-Jan-11 23:48N 26°31' W 058°45'1 1.5 24.1
2017-Jan-11 23:16N 26°31' W 058°46'1 6.4 24.1
2017-Jan-11 23:11N 26°31' W 058°45'1 1.1 24.1
2017-Jan-11 22:28N 26°32' W 058°46'110.7 24.2
2017-Jan-11 22:25N 26°32' W 058°45'0 0.0 24.2
2017-Jan-11 22:09N 26°32' W 058°45'0 0.0 24.2
2017-Jan-11 22:05N 26°32' W 058°45'1 1.8 24.2
2017-Jan-11 21:38N 26°32' W 058°44'1 0.8 24.2
2017-Jan-11 20:55N 26°33' W 058°44'1 7.2 24.2
2017-Jan-11 20:50N 26°34' W 058°44'0 0.0 24.2
2017-Jan-11 20:29N 26°34' W 058°44'0 0.0 24.2
2017-Jan-11 20:00N 26°34' W 058°44'1 0.7 24.2
2017-Jan-11 18:24N 26°35' W 058°44'0 0.0 24.3
2017-Jan-11 18:20N 26°35' W 058°44'110.7 24.3
2017-Jan-11 18:17N 26°35' W 058°44'2 1.5 24.3
2017-Jan-11 16:39N 26°37' W 058°44'0 0.0 24.2
2017-Jan-11 15:06N 26°37' W 058°44'136.0 24.2
2017-Jan-11 15:04N 26°38' W 058°44'0 0.0 24.2
2017-Jan-11 14:09N 26°38' W 058°44'0 0.0
2017-Jan-11 13:26N 26°38' W 058°44'0 0.0 24.2
2017-Jan-11 12:41N 26°38' W 058°44'1 4.3 24.2
2017-Jan-11 12:24N 26°39' W 058°43'0 0.0 24.2
2017-Jan-11 11:19N 26°39' W 058°43'1 1.6 24.3
2017-Jan-11 10:56N 26°40' W 058°43'1 2.6 24.3
2017-Jan-11 10:42N 26°40' W 058°43'0 0.0 24.3
2017-Jan-11 09:43N 26°40' W 058°43'1 4.6 24.3
2017-Jan-11 09:36N 26°40' W 058°43'0 0.0 24.3
2017-Jan-11 09:18N 26°40' W 058°43'1 4.0 24.3
2017-Jan-11 09:06N 26°41' W 058°42'0 0.0 24.3
2017-Jan-11 08:37N 26°41' W 058°42'124.1 24.3
2017-Jan-11 08:35N 26°41' W 058°41'0 0.0 24.4
2017-Jan-11 07:04N 26°41' W 058°41'0 0.0 24.3
2017-Jan-11 07:01N 26°41' W 058°41'3 1.8 24.3
2017-Jan-11 05:17N 26°44' W 058°40'0 0.0 24.2
2017-Jan-11 02:37N 26°44' W 058°40'0 0.0 24.3
2017-Jan-11 01:54N 26°44' W 058°40'1 0.7 24.3
2017-Jan-11 01:04N 26°45' W 058°40'0 0.0 24.3
2017-Jan-11 01:01N 26°45' W 058°40'0 0.0 24.3
2017-Jan-11 00:55N 26°45' W 058°40'0 0.0 24.3
2017-Jan-11 00:16N 26°45' W 058°40'0 0.0 24.3
2017-Jan-11 00:07N 26°45' W 058°40'0 0.0
2017-Jan-10 23:56N 26°45' W 058°40'0 0.0 24.2
2017-Jan-10 23:44N 26°45' W 058°40'1 1.6 24.2
2017-Jan-10 23:21N 26°44' W 058°40'0 0.0 24.2
2017-Jan-10 23:15N 26°44' W 058°40'0 0.0 24.2
2017-Jan-10 22:24N 26°44' W 058°40'0 0.0 24.2
2017-Jan-10 22:20N 26°44' W 058°40'0 0.0 24.2
2017-Jan-10 22:08N 26°44' W 058°40'0 0.0
2017-Jan-10 22:06N 26°44' W 058°40'0 0.0 24.2
2017-Jan-10 21:18N 26°44' W 058°40'0 0.0 24.2
2017-Jan-10 21:12N 26°44' W 058°40'0 0.0 24.2
2017-Jan-10 20:40N 26°44' W 058°40'0 0.0 24.2
2017-Jan-10 20:26N 26°44' W 058°40'0 0.0 24.2
2017-Jan-10 20:12N 26°44' W 058°40'1 0.4 24.2
2017-Jan-10 18:35N 26°44' W 058°40'1 4.6 24.2
2017-Jan-10 18:28N 26°44' W 058°40'2 1.3 24.2
2017-Jan-10 16:52N 26°44' W 058°37'0 0.0 24.2
2017-Jan-10 15:25N 26°44' W 058°37'1 0.7 24.2
2017-Jan-10 14:36N 26°44' W 058°37'0 0.0 24.2
2017-Jan-10 13:47N 26°44' W 058°37'1 0.8 24.2
2017-Jan-10 13:02N 26°44' W 058°37'1 4.0 24.2
2017-Jan-10 12:53N 26°45' W 058°37'0 0.0 24.2
2017-Jan-10 12:37N 26°45' W 058°37'0 0.0 24.2
2017-Jan-10 12:03N 26°45' W 058°37'0 0.0 24.2
2017-Jan-10 11:45N 26°45' W 058°37'0 0.0 24.2
2017-Jan-10 11:38N 26°45' W 058°37'0 0.0 24.3
2017-Jan-10 11:26N 26°45' W 058°37'0 0.0 24.3
2017-Jan-10 11:02N 26°45' W 058°37'1 4.0 24.3
2017-Jan-10 10:54N 26°45' W 058°36'116.1 24.3
2017-Jan-10 10:52N 26°45' W 058°37'0 0.0 24.3
2017-Jan-10 10:04N 26°45' W 058°37'1 5.4 24.3
2017-Jan-10 09:58N 26°45' W 058°36'0 0.0 24.3
2017-Jan-10 09:48N 26°45' W 058°36'1 4.0 24.4
2017-Jan-10 09:39N 26°44' W 058°36'0 0.0 24.3
2017-Jan-10 09:17N 26°44' W 058°36'0 0.0 24.3
2017-Jan-10 08:52N 26°44' W 058°36'2 3.2 24.4
2017-Jan-10 08:22N 26°43' W 058°35'1 3.4 24.3
2017-Jan-10 08:08N 26°44' W 058°35'1 0.9 24.4
2017-Jan-10 07:16N 26°43' W 058°35'0 0.0 24.3
2017-Jan-10 07:07N 26°43' W 058°35'248.3 24.3
2017-Jan-10 07:05N 26°42' W 058°34'0 0.0 24.4
2017-Jan-10 05:29N 26°42' W 058°34'1 0.1 24.4
2017-Jan-10 01:25N 26°41' W 058°34'0 0.0 24.4
2017-Jan-10 01:18N 26°41' W 058°34'0 0.0 24.4
2017-Jan-10 00:36N 26°41' W 058°34'1 7.2 24.4
2017-Jan-10 00:31N 26°41' W 058°34'0 0.0 24.4
2017-Jan-10 00:13N 26°41' W 058°34'0 0.0 24.4
2017-Jan-10 00:10N 26°41' W 058°34'0 0.0 24.4
2017-Jan-09 23:43N 26°41' W 058°34'0 0.0 24.4
2017-Jan-09 23:22N 26°41' W 058°34'1 0.8 24.4
2017-Jan-09 22:41N 26°41' W 058°33'0 0.0 24.4
2017-Jan-09 22:32N 26°41' W 058°33'0 0.0 24.4
2017-Jan-09 22:28N 26°41' W 058°33'   24.4
Track history (hours):
 
Tides and Currents Weather Stations Pressure Air Temp Water Temp Dewpoint Dewpoint Depression Visibility Wind Speed Wind Dir Waves Ship Positions

Drifting buoy 41991

Last reported at 2017-Jan-19 22:16 UTC. Time now 2017-Jan-19 23:31 UTC.
Position N 25°52' W 058°54'.

Water temperature 24.2 ° C

Date/timePositionNaut miles runAvg speedWind from/ knotsBaromVisibWave heightAir tempDewpointWater temp
2017-Jan-19 22:16N 25°52' W 058°54'0 0.0 24.2
2017-Jan-19 22:12N 25°52' W 058°54'1 0.6 24.2
2017-Jan-19 20:56N 25°52' W 058°53'0 0.0 24.2
2017-Jan-19 20:47N 25°52' W 058°53'1 5.7 24.2
2017-Jan-19 20:34N 25°52' W 058°55'2 4.5 24.2
2017-Jan-19 20:11N 25°51' W 058°56'0 0.0 24.2
2017-Jan-19 18:33N 25°51' W 058°56'0 0.0 24.2
2017-Jan-19 18:22N 25°51' W 058°56'4 2.7 24.2
2017-Jan-19 16:48N 25°49' W 059°01'0 0.0 24.2
2017-Jan-19 15:36N 25°49' W 059°01'1 0.7 24.2
2017-Jan-19 14:52N 25°49' W 059°00'1 1.0 24.2
2017-Jan-19 14:02N 25°49' W 059°01'1 0.7 24.2
2017-Jan-19 13:17N 25°49' W 059°01'1 3.6 24.2
2017-Jan-19 13:08N 25°49' W 059°02'0 0.0 24.2
2017-Jan-19 12:36N 25°49' W 059°02'0 0.0 24.2
2017-Jan-19 12:33N 25°49' W 059°02'0 0.0 24.2
2017-Jan-19 12:17N 25°49' W 059°02'1 0.8 24.2
2017-Jan-19 11:20N 25°48' W 059°02'1 1.2 24.2
2017-Jan-19 10:53N 25°48' W 059°03'0 0.0 24.1
2017-Jan-19 10:07N 25°48' W 059°03'1 6.0 24.2
2017-Jan-19 10:01N 25°47' W 059°03'0 0.0 24.2
2017-Jan-19 09:43N 25°47' W 059°03'0 0.0 24.2
2017-Jan-19 09:34N 25°47' W 059°03'1 1.4 24.2
2017-Jan-19 09:11N 25°47' W 059°04'0 0.0 24.2
2017-Jan-19 08:50N 25°47' W 059°04'0 0.0 24.2
2017-Jan-19 08:28N 25°47' W 059°04'1 9.3 24.2
2017-Jan-19 08:21N 25°47' W 059°05'0 0.0 24.2
2017-Jan-19 07:06N 25°47' W 059°05'179.0 24.1
2017-Jan-19 07:05N 25°46' W 059°05'0 0.0 24.1
2017-Jan-19 05:27N 25°46' W 059°05'0 0.0 24.2
2017-Jan-19 02:25N 25°46' W 059°05'0 0.0 24.2
2017-Jan-19 01:37N 25°46' W 059°05'1 5.4 24.2
2017-Jan-19 01:31N 25°46' W 059°06'0 0.0 24.2
2017-Jan-19 00:48N 25°46' W 059°06'1 7.2 24.2
2017-Jan-19 00:43N 25°46' W 059°06'0 0.0 24.2
2017-Jan-19 00:07N 25°46' W 059°06'1 3.5 24.2
2017-Jan-18 23:53N 25°46' W 059°05'0 0.0 24.2
2017-Jan-18 23:50N 25°46' W 059°05'1 0.6 24.2
2017-Jan-18 22:52N 25°46' W 059°06'0 0.0 24.2
2017-Jan-18 22:27N 25°46' W 059°06'0 0.0 24.2
2017-Jan-18 22:22N 25°46' W 059°06'1 0.6 24.2
2017-Jan-18 21:20N 25°47' W 059°06'1 6.9 24.2
2017-Jan-18 21:13N 25°46' W 059°05'0 0.0 24.2
2017-Jan-18 20:48N 25°46' W 059°05'1 1.3 24.2
2017-Jan-18 20:21N 25°47' W 059°05'1 0.5 24.2
2017-Jan-18 18:39N 25°47' W 059°05'110.8 24.2
2017-Jan-18 18:36N 25°47' W 059°05'1 0.5 24.2
2017-Jan-18 16:59N 25°48' W 059°06'0 0.0 24.2
2017-Jan-18 15:12N 25°48' W 059°06'0 0.0 24.1
2017-Jan-18 14:22N 25°48' W 059°06'1 5.1 24.1
2017-Jan-18 14:15N 25°49' W 059°06'1 1.5 24.1
2017-Jan-18 13:31N 25°49' W 059°07'1 1.1 24.1
2017-Jan-18 12:48N 25°49' W 059°07'116.2 24.1
2017-Jan-18 12:44N 25°49' W 059°08'113.0 24.1
2017-Jan-18 12:39N 25°49' W 059°07'1 1.2 24.1
2017-Jan-18 11:45N 25°49' W 059°08'0 0.0 24.1
2017-Jan-18 11:08N 25°49' W 059°08'0 0.0 24.1
2017-Jan-18 11:01N 25°49' W 059°08'0 0.0 24.1
2017-Jan-18 10:38N 25°49' W 059°08'1 3.3 24.1
2017-Jan-18 10:27N 25°50' W 059°08'0 0.0
2017-Jan-18 10:07N 25°50' W 059°08'116.1 24.1
2017-Jan-18 10:04N 25°49' W 059°07'1 6.5 24.1
2017-Jan-18 09:59N 25°49' W 059°08'0 0.0 24.1
2017-Jan-18 09:30N 25°49' W 059°08'1 7.2 24.1
2017-Jan-18 09:25N 25°50' W 059°08'0 0.0 24.1
2017-Jan-18 08:53N 25°50' W 059°08'1 1.0 24.1
2017-Jan-18 08:22N 25°50' W 059°08'0 0.0 24.1
2017-Jan-18 07:23N 25°50' W 059°08'2 1.2 24.1
2017-Jan-18 05:38N 25°51' W 059°10'0 0.0 24.1
2017-Jan-18 01:53N 25°51' W 059°10'148.4 24.1
2017-Jan-18 01:52N 25°50' W 059°11'0 0.0 24.1
2017-Jan-18 01:07N 25°50' W 059°11'124.2 24.1
2017-Jan-18 01:05N 25°51' W 059°10'0 0.0 24.1
2017-Jan-18 00:15N 25°51' W 059°10'0 0.0 24.1
2017-Jan-18 00:10N 25°51' W 059°10'0 0.0 24.1
2017-Jan-17 23:29N 25°51' W 059°10'0 0.0 24.1
2017-Jan-17 23:25N 25°51' W 059°10'0 0.0 24.1
2017-Jan-17 23:24N 25°51' W 059°10'1 0.7 24.1
2017-Jan-17 22:35N 25°51' W 059°11'0 0.0 24.1
2017-Jan-17 21:51N 25°51' W 059°11'0 0.0 24.1
2017-Jan-17 21:46N 25°51' W 059°11'1 4.5 24.1
2017-Jan-17 21:38N 25°52' W 059°11'1 1.0 24.1
2017-Jan-17 21:01N 25°51' W 059°11'0 0.0 24.1
2017-Jan-17 20:57N 25°51' W 059°11'1 7.2 24.1
2017-Jan-17 20:52N 25°52' W 059°11'1 1.7 24.1
2017-Jan-17 20:31N 25°51' W 059°11'0 0.0 24.1
2017-Jan-17 20:04N 25°51' W 059°11'1 0.7 24.1
2017-Jan-17 18:53N 25°52' W 059°11'113.2 24.1
2017-Jan-17 18:47N 25°53' W 059°12'0 0.0 24.1
2017-Jan-17 17:07N 25°53' W 059°12'0 0.0 24.1
2017-Jan-17 14:41N 25°53' W 059°12'112.0 24.1
2017-Jan-17 14:38N 25°53' W 059°12'1 0.7 24.1
2017-Jan-17 13:51N 25°53' W 059°13'1 0.7 24.1
2017-Jan-17 12:59N 25°54' W 059°13'0 0.0 24.0
2017-Jan-17 12:04N 25°54' W 059°13'0 0.0 24.0
2017-Jan-17 11:23N 25°54' W 059°13'1 2.9 24.0
2017-Jan-17 11:12N 25°54' W 059°13'0 0.0 24.0
2017-Jan-17 11:07N 25°54' W 059°13'1 1.4 24.0
2017-Jan-17 10:33N 25°55' W 059°13'0 0.0 24.0
2017-Jan-17 10:30N 25°55' W 059°13'1 0.6 24.0
2017-Jan-17 09:38N 25°55' W 059°13'0 0.0
2017-Jan-17 09:36N 25°55' W 059°13'0 0.0 23.9
2017-Jan-17 09:27N 25°55' W 059°13'0 0.0 23.9
2017-Jan-17 09:24N 25°55' W 059°13'1 1.1 23.9
2017-Jan-17 08:52N 25°55' W 059°13'1 4.5 23.9
2017-Jan-17 08:44N 25°56' W 059°13'0 0.0 23.9
2017-Jan-17 07:47N 25°56' W 059°13'0 0.0 23.9
2017-Jan-17 07:33N 25°56' W 059°13'2 9.4 23.9
2017-Jan-17 07:22N 25°56' W 059°15'1 0.4
2017-Jan-17 05:50N 25°57' W 059°15'2 0.6 23.9
2017-Jan-17 02:17N 25°58' W 059°17'0 0.0 23.8
2017-Jan-17 02:14N 25°58' W 059°17'0 0.0 23.8
2017-Jan-17 02:10N 25°58' W 059°17'0 0.0 23.8
2017-Jan-17 01:31N 25°58' W 059°17'0 0.0 23.8
2017-Jan-17 01:24N 25°58' W 059°17'0 0.0 23.8
2017-Jan-17 00:39N 25°58' W 059°17'0 0.0 23.8
2017-Jan-17 00:36N 25°58' W 059°17'1 0.8 23.8
2017-Jan-16 23:53N 25°58' W 059°17'1 8.1 23.8
2017-Jan-16 23:49N 25°58' W 059°18'0 0.0 23.8
2017-Jan-16 23:42N 25°58' W 059°18'0 0.0 23.8
2017-Jan-16 22:52N 25°58' W 059°18'0 0.0 23.8
2017-Jan-16 22:51N 25°58' W 059°18'0 0.0 23.8
2017-Jan-16 22:47N 25°58' W 059°18'0 0.0 23.8
2017-Jan-16 22:20N 25°58' W 059°18'0 0.0 23.8
2017-Jan-16 22:06N 25°58' W 059°18'114.8 23.8
2017-Jan-16 22:01N 25°59' W 059°19'0 0.0 23.8
2017-Jan-16 21:13N 25°59' W 059°19'0 0.0 23.8
2017-Jan-16 21:07N 25°59' W 059°19'1 5.1 23.8
2017-Jan-16 21:00N 25°59' W 059°19'1 1.8
2017-Jan-16 20:42N 25°59' W 059°19'116.2 23.8
2017-Jan-16 20:40N 25°59' W 059°19'1 3.2 23.8
2017-Jan-16 20:30N 25°59' W 059°19'1 8.2 23.8
2017-Jan-16 20:21N 26°00' W 059°20'0 0.0 23.9
2017-Jan-16 19:04N 26°00' W 059°20'124.7 23.9
2017-Jan-16 19:01N 26°01' W 059°21'0 0.0 23.9
2017-Jan-16 17:24N 26°01' W 059°21'1 4.6 23.8
2017-Jan-16 17:17N 26°01' W 059°22'1 0.3 23.8
2017-Jan-16 15:03N 26°01' W 059°22'121.6 23.7
2017-Jan-16 15:00N 26°01' W 059°23'0 0.0 23.7
2017-Jan-16 14:19N 26°01' W 059°23'0 0.0 23.7
2017-Jan-16 14:15N 26°01' W 059°23'0 0.0 23.7
2017-Jan-16 14:10N 26°01' W 059°23'0 0.0 23.7
2017-Jan-16 13:22N 26°01' W 059°23'1 0.6 23.7
2017-Jan-16 11:38N 26°01' W 059°24'0 0.0 23.6
2017-Jan-16 11:33N 26°01' W 059°24'220.7 23.6
2017-Jan-16 11:28N 26°01' W 059°22'4 2.5 23.6
2017-Jan-16 10:00N 25°57' W 059°23'110.3 23.6
2017-Jan-16 09:53N 25°58' W 059°23'0 0.0 23.6
2017-Jan-16 08:22N 25°58' W 059°23'610.6 23.7
2017-Jan-16 07:48N 26°04' W 059°23'3 0.6 23.7
2017-Jan-16 02:38N 26°02' W 059°25'1 8.1 23.7
2017-Jan-16 02:34N 26°02' W 059°25'1 0.7 23.7
2017-Jan-16 01:46N 26°02' W 059°25'0 0.0 23.7
2017-Jan-16 00:53N 26°02' W 059°25'1 1.0 23.7
2017-Jan-16 00:06N 26°02' W 059°25'0 0.0 23.7
2017-Jan-15 23:16N 26°02' W 059°25'1 2.0 23.7
2017-Jan-15 23:00N 26°02' W 059°25'116.1 23.7
2017-Jan-15 22:57N 26°02' W 059°25'0 0.0 23.7
2017-Jan-15 22:51N 26°02' W 059°25'0 0.0 23.7
2017-Jan-15 22:46N 26°02' W 059°25'0 0.0 23.7
2017-Jan-15 22:27N 26°02' W 059°25'0 0.0 23.7
2017-Jan-15 21:24N 26°02' W 059°25'1 7.2 23.8
2017-Jan-15 21:19N 26°02' W 059°25'1 5.4 23.8
2017-Jan-15 21:13N 26°02' W 059°25'0 0.0 23.8
2017-Jan-15 20:54N 26°02' W 059°25'1 4.6 23.8
2017-Jan-15 20:47N 26°02' W 059°25'1 0.4 23.8
2017-Jan-15 19:16N 26°03' W 059°25'0 0.0 23.8
2017-Jan-15 19:07N 26°03' W 059°25'0 0.0 23.8
2017-Jan-15 17:36N 26°03' W 059°25'0 0.0 23.8
2017-Jan-15 17:32N 26°03' W 059°25'116.1 23.8
2017-Jan-15 17:29N 26°04' W 059°24'0 0.0 23.8
2017-Jan-15 15:19N 26°04' W 059°24'0 0.0 23.8
2017-Jan-15 14:38N 26°04' W 059°24'0 0.0 23.8
2017-Jan-15 14:34N 26°04' W 059°24'0 0.0 23.8
2017-Jan-15 13:42N 26°04' W 059°24'0 0.0 23.8
2017-Jan-15 12:58N 26°04' W 059°24'1 8.1 23.8
2017-Jan-15 12:52N 26°04' W 059°23'1 0.5 23.8
2017-Jan-15 11:46N 26°04' W 059°24'0 0.0 23.8
2017-Jan-15 11:41N 26°04' W 059°24'0 0.0 23.8
2017-Jan-15 11:37N 26°04' W 059°24'0 0.0 23.8
2017-Jan-15 11:23N 26°04' W 059°24'0 0.0 23.7
2017-Jan-15 11:20N 26°04' W 059°24'1 8.1 23.7
2017-Jan-15 11:14N 26°04' W 059°23'0 0.0 23.7
2017-Jan-15 10:33N 26°04' W 059°23'0 0.0 23.7
2017-Jan-15 10:30N 26°04' W 059°23'1 3.6 23.7
2017-Jan-15 10:21N 26°04' W 059°24'0 0.0
2017-Jan-15 10:05N 26°04' W 059°24'1 5.4 23.8
2017-Jan-15 09:59N 26°04' W 059°23'0 0.0 23.8
2017-Jan-15 09:42N 26°04' W 059°23'0 0.0 23.8
2017-Jan-15 09:34N 26°04' W 059°23'0 0.0 23.8
2017-Jan-15 08:50N 26°04' W 059°23'1 9.0 23.8
2017-Jan-15 08:46N 26°04' W 059°23'0 0.0 23.8
2017-Jan-15 07:53N 26°04' W 059°23'1 0.5 23.8
2017-Jan-15 06:11N 26°05' W 059°24'1 0.3 23.8
2017-Jan-15 02:05N 26°05' W 059°23'0 0.0 23.8
2017-Jan-15 01:19N 26°05' W 059°23'1 6.0 23.8
2017-Jan-15 01:13N 26°05' W 059°23'0 0.0 23.8
2017-Jan-15 00:34N 26°05' W 059°23'1 3.6 23.8
2017-Jan-15 00:25N 26°05' W 059°22'0 0.0 23.8
2017-Jan-14 23:39N 26°05' W 059°22'1 9.0 23.8
2017-Jan-14 23:35N 26°05' W 059°22'0 0.0 23.8
2017-Jan-14 23:23N 26°05' W 059°22'1 3.6 23.8
2017-Jan-14 23:14N 26°05' W 059°22'0 0.0 23.8
2017-Jan-14 23:08N 26°05' W 059°22'0 0.0 23.8
2017-Jan-14 22:52N 26°05' W 059°22'0 0.0 23.8
2017-Jan-14 21:43N 26°05' W 059°22'0 0.0 23.8
2017-Jan-14 21:36N 26°05' W 059°22'0 0.0 23.8
2017-Jan-14 21:32N 26°05' W 059°22'110.8 23.8
2017-Jan-14 21:29N 26°05' W 059°22'1 3.6 23.8
2017-Jan-14 21:20N 26°05' W 059°22'1 6.0
2017-Jan-14 21:12N 26°05' W 059°21'0 0.0 23.8
2017-Jan-14 19:27N 26°05' W 059°21'0 0.0 23.8
2017-Jan-14 19:22N 26°05' W 059°21'0 0.0 23.8
2017-Jan-14 17:49N 26°05' W 059°21'1 9.7 23.9
2017-Jan-14 17:44N 26°06' W 059°20'119.7 23.9
2017-Jan-14 17:40N 26°07' W 059°20'1 0.3 23.9
2017-Jan-14 14:53N 26°07' W 059°20'1 1.0 23.8
2017-Jan-14 14:04N 26°07' W 059°20'1 0.7 23.9
2017-Jan-14 13:20N 26°07' W 059°20'1 7.2 23.8
2017-Jan-14 13:15N 26°07' W 059°20'1 1.1 23.8
2017-Jan-14 12:17N 26°07' W 059°19'1 1.5 23.8
2017-Jan-14 11:53N 26°07' W 059°19'0 0.0 23.8
2017-Jan-14 11:42N 26°07' W 059°19'1 0.8 23.8
2017-Jan-14 11:03N 26°07' W 059°20'1 8.1 23.8
2017-Jan-14 10:55N 26°07' W 059°19'0 0.0 23.8
2017-Jan-14 10:18N 26°07' W 059°19'1 3.3 23.8
2017-Jan-14 10:07N 26°07' W 059°19'1 3.6 23.8
2017-Jan-14 09:57N 26°07' W 059°19'0 0.0 23.8
2017-Jan-14 09:23N 26°07' W 059°19'0 0.0
2017-Jan-14 09:21N 26°07' W 059°19'0 0.0 23.8
2017-Jan-14 09:16N 26°07' W 059°19'0 0.0 23.8
2017-Jan-14 08:06N 26°07' W 059°19'0 0.0 23.8
2017-Jan-14 08:04N 26°07' W 059°19'2 0.4 23.8
2017-Jan-14 02:25N 26°08' W 059°16'0 0.0 23.9
2017-Jan-14 01:35N 26°08' W 059°16'132.3 23.9
2017-Jan-14 01:34N 26°08' W 059°16'0 0.0 24.0
2017-Jan-14 00:53N 26°08' W 059°16'1 8.1
2017-Jan-14 00:49N 26°08' W 059°16'1 0.6 24.0
2017-Jan-13 23:59N 26°08' W 059°16'1 4.6 24.0
2017-Jan-13 23:52N 26°08' W 059°15'0 0.0 24.0
2017-Jan-13 23:50N 26°08' W 059°15'1 1.4 24.0
2017-Jan-13 23:25N 26°08' W 059°15'1 9.7 24.0
2017-Jan-13 23:20N 26°08' W 059°14'0 0.0 24.0
2017-Jan-13 22:16N 26°08' W 059°14'1 8.1 24.0
2017-Jan-13 22:12N 26°08' W 059°14'110.8 24.0
2017-Jan-13 22:09N 26°08' W 059°14'1 1.3 24.0
2017-Jan-13 21:45N 26°08' W 059°14'1 6.5 24.0
2017-Jan-13 21:40N 26°08' W 059°13'0 0.0 24.0
2017-Jan-13 20:32N 26°08' W 059°13'1 0.6 24.1
2017-Jan-13 19:37N 26°08' W 059°13'114.8 24.1
2017-Jan-13 19:32N 26°09' W 059°11'1 0.5 24.1
2017-Jan-13 17:54N 26°08' W 059°12'3 1.1 24.1
2017-Jan-13 15:17N 26°10' W 059°09'1 0.6 24.1
2017-Jan-13 14:27N 26°10' W 059°08'0 0.0 24.1
2017-Jan-13 14:20N 26°10' W 059°08'0 0.0 24.1
2017-Jan-13 13:40N 26°10' W 059°08'1 7.2 24.1
2017-Jan-13 13:35N 26°10' W 059°08'1 1.3 24.1
2017-Jan-13 12:45N 26°10' W 059°07'0 0.0 24.1
2017-Jan-13 12:43N 26°10' W 059°07'1 6.5 24.1
2017-Jan-13 12:38N 26°10' W 059°07'0 0.0 24.1
2017-Jan-13 12:08N 26°10' W 059°07'0 0.0 24.1
2017-Jan-13 12:04N 26°10' W 059°07'1 1.4 24.1
2017-Jan-13 11:30N 26°11' W 059°06'1 0.5 24.1
2017-Jan-13 10:22N 26°11' W 059°05'1 0.8 24.2
2017-Jan-13 08:51N 26°11' W 059°04'1 1.4 24.2
2017-Jan-13 08:16N 26°12' W 059°04'4 0.7 24.2
2017-Jan-13 02:00N 26°14' W 058°59'1 9.2 24.1
2017-Jan-13 01:52N 26°15' W 058°58'0 0.0 24.1
2017-Jan-13 01:06N 26°15' W 058°58'0 0.0 24.1
2017-Jan-13 00:21N 26°15' W 058°58'0 0.0 24.1
2017-Jan-13 00:18N 26°15' W 058°58'0 0.0 24.1
2017-Jan-13 00:14N 26°15' W 058°58'0 0.0 24.1
2017-Jan-12 23:37N 26°15' W 058°58'0 0.0 24.1
2017-Jan-12 23:28N 26°15' W 058°58'1 1.2 24.1
2017-Jan-12 22:47N 26°16' W 058°58'1 3.6 24.1
2017-Jan-12 22:38N 26°16' W 058°57'0 0.0 24.1
2017-Jan-12 22:11N 26°16' W 058°57'0 0.0 24.1
2017-Jan-12 22:01N 26°16' W 058°57'0 0.0 24.1
2017-Jan-12 21:53N 26°16' W 058°57'148.4
2017-Jan-12 21:52N 26°16' W 058°56'0 0.0 24.1
2017-Jan-12 21:02N 26°16' W 058°56'1 2.1 24.1
2017-Jan-12 20:26N 26°17' W 058°55'0 0.0 24.1
2017-Jan-12 20:15N 26°17' W 058°55'0 0.0 24.1
2017-Jan-12 19:50N 26°17' W 058°55'1 6.9 24.1
2017-Jan-12 19:43N 26°17' W 058°55'0 0.0 24.1
2017-Jan-12 18:07N 26°17' W 058°55'0 0.0 24.1
2017-Jan-12 18:05N 26°17' W 058°55'3 1.0 24.1
2017-Jan-12 14:47N 26°20' W 058°52'1 9.7 24.1
2017-Jan-12 14:42N 26°20' W 058°52'0 0.0 24.1
2017-Jan-12 14:03N 26°20' W 058°52'0 0.0 24.1
2017-Jan-12 13:59N 26°20' W 058°52'248.3 24.1
2017-Jan-12 13:57N 26°22' W 058°50'0 0.0 24.1
2017-Jan-12 13:04N 26°22' W 058°50'0 0.0 24.1
2017-Jan-12 12:17N 26°22' W 058°50'2 1.2 24.1
2017-Jan-12 10:54N 26°23' W 058°49'1 2.2 24.1
2017-Jan-12 10:39N 26°23' W 058°50'1 6.5 24.1
2017-Jan-12 10:34N 26°23' W 058°49'1 5.1 24.1
2017-Jan-12 10:27N 26°23' W 058°49'1 6.9 24.1
2017-Jan-12 10:20N 26°24' W 058°49'0 0.0 24.1
2017-Jan-12 09:10N 26°24' W 058°49'0 0.0 24.1
2017-Jan-12 08:52N 26°24' W 058°49'0 0.0 24.1
2017-Jan-12 08:47N 26°24' W 058°49'0 0.0 24.1
2017-Jan-12 08:40N 26°24' W 058°49'0 0.0 24.1
2017-Jan-12 08:29N 26°24' W 058°49'6 3.2 24.1
2017-Jan-12 06:46N 26°29' W 058°46'0 0.0 24.2
2017-Jan-12 02:22N 26°29' W 058°46'112.3 24.1
2017-Jan-12 02:16N 26°29' W 058°44'0 0.0 24.1
2017-Jan-12 01:34N 26°29' W 058°44'110.5 24.2
2017-Jan-12 01:27N 26°30' W 058°46'0 0.0 24.2
2017-Jan-12 00:42N 26°30' W 058°46'111.3 24.1
2017-Jan-12 00:35N 26°31' W 058°45'0 0.0 24.1
2017-Jan-11 23:56N 26°31' W 058°45'1 9.0 24.2
2017-Jan-11 23:52N 26°31' W 058°45'0 0.0 24.1
2017-Jan-11 23:48N 26°31' W 058°45'1 1.5 24.1
2017-Jan-11 23:16N 26°31' W 058°46'1 6.4 24.1
2017-Jan-11 23:11N 26°31' W 058°45'1 1.1 24.1
2017-Jan-11 22:28N 26°32' W 058°46'110.7 24.2
2017-Jan-11 22:25N 26°32' W 058°45'0 0.0 24.2
2017-Jan-11 22:09N 26°32' W 058°45'0 0.0 24.2
2017-Jan-11 22:05N 26°32' W 058°45'1 1.8 24.2
2017-Jan-11 21:38N 26°32' W 058°44'1 0.8 24.2
2017-Jan-11 20:55N 26°33' W 058°44'1 7.2 24.2
2017-Jan-11 20:50N 26°34' W 058°44'0 0.0 24.2
2017-Jan-11 20:29N 26°34' W 058°44'0 0.0 24.2
2017-Jan-11 20:00N 26°34' W 058°44'1 0.7 24.2
2017-Jan-11 18:24N 26°35' W 058°44'0 0.0 24.3
2017-Jan-11 18:20N 26°35' W 058°44'110.7 24.3
2017-Jan-11 18:17N 26°35' W 058°44'2 1.5 24.3
2017-Jan-11 16:39N 26°37' W 058°44'0 0.0 24.2
2017-Jan-11 15:06N 26°37' W 058°44'136.0 24.2
2017-Jan-11 15:04N 26°38' W 058°44'0 0.0 24.2
2017-Jan-11 14:09N 26°38' W 058°44'0 0.0
2017-Jan-11 13:26N 26°38' W 058°44'0 0.0 24.2
2017-Jan-11 12:41N 26°38' W 058°44'1 4.3 24.2
2017-Jan-11 12:24N 26°39' W 058°43'0 0.0 24.2
2017-Jan-11 11:19N 26°39' W 058°43'1 1.6 24.3
2017-Jan-11 10:56N 26°40' W 058°43'1 2.6 24.3
2017-Jan-11 10:42N 26°40' W 058°43'0 0.0 24.3
2017-Jan-11 09:43N 26°40' W 058°43'1 4.6 24.3
2017-Jan-11 09:36N 26°40' W 058°43'0 0.0 24.3
2017-Jan-11 09:18N 26°40' W 058°43'1 4.0 24.3
2017-Jan-11 09:06N 26°41' W 058°42'0 0.0 24.3
2017-Jan-11 08:37N 26°41' W 058°42'124.1 24.3
2017-Jan-11 08:35N 26°41' W 058°41'0 0.0 24.4
2017-Jan-11 07:04N 26°41' W 058°41'0 0.0 24.3
2017-Jan-11 07:01N 26°41' W 058°41'3 1.8 24.3
2017-Jan-11 05:17N 26°44' W 058°40'0 0.0 24.2
2017-Jan-11 02:37N 26°44' W 058°40'0 0.0 24.3
2017-Jan-11 01:54N 26°44' W 058°40'1 0.7 24.3
2017-Jan-11 01:04N 26°45' W 058°40'0 0.0 24.3
2017-Jan-11 01:01N 26°45' W 058°40'0 0.0 24.3
2017-Jan-11 00:55N 26°45' W 058°40'0 0.0 24.3
2017-Jan-11 00:16N 26°45' W 058°40'0 0.0 24.3
2017-Jan-11 00:07N 26°45' W 058°40'0 0.0
2017-Jan-10 23:56N 26°45' W 058°40'0 0.0 24.2
2017-Jan-10 23:44N 26°45' W 058°40'1 1.6 24.2
2017-Jan-10 23:21N 26°44' W 058°40'0 0.0 24.2
2017-Jan-10 23:15N 26°44' W 058°40'0 0.0 24.2
2017-Jan-10 22:24N 26°44' W 058°40'0 0.0 24.2
2017-Jan-10 22:20N 26°44' W 058°40'0 0.0 24.2
2017-Jan-10 22:08N 26°44' W 058°40'0 0.0
2017-Jan-10 22:06N 26°44' W 058°40'0 0.0 24.2
2017-Jan-10 21:18N 26°44' W 058°40'0 0.0 24.2
2017-Jan-10 21:12N 26°44' W 058°40'0 0.0 24.2
2017-Jan-10 20:40N 26°44' W 058°40'0 0.0 24.2
2017-Jan-10 20:26N 26°44' W 058°40'0 0.0 24.2
2017-Jan-10 20:12N 26°44' W 058°40'1 0.4 24.2
2017-Jan-10 18:35N 26°44' W 058°40'1 4.6 24.2
2017-Jan-10 18:28N 26°44' W 058°40'2 1.3 24.2
2017-Jan-10 16:52N 26°44' W 058°37'0 0.0 24.2
2017-Jan-10 15:25N 26°44' W 058°37'1 0.7 24.2
2017-Jan-10 14:36N 26°44' W 058°37'0 0.0 24.2
2017-Jan-10 13:47N 26°44' W 058°37'1 0.8 24.2
2017-Jan-10 13:02N 26°44' W 058°37'1 4.0 24.2
2017-Jan-10 12:53N 26°45' W 058°37'0 0.0 24.2
2017-Jan-10 12:37N 26°45' W 058°37'0 0.0 24.2
2017-Jan-10 12:03N 26°45' W 058°37'0 0.0 24.2
2017-Jan-10 11:45N 26°45' W 058°37'0 0.0 24.2
2017-Jan-10 11:38N 26°45' W 058°37'0 0.0 24.3
2017-Jan-10 11:26N 26°45' W 058°37'0 0.0 24.3
2017-Jan-10 11:02N 26°45' W 058°37'1 4.0 24.3
2017-Jan-10 10:54N 26°45' W 058°36'116.1 24.3
2017-Jan-10 10:52N 26°45' W 058°37'0 0.0 24.3
2017-Jan-10 10:04N 26°45' W 058°37'1 5.4 24.3
2017-Jan-10 09:58N 26°45' W 058°36'0 0.0 24.3
2017-Jan-10 09:48N 26°45' W 058°36'1 4.0 24.4
2017-Jan-10 09:39N 26°44' W 058°36'0 0.0 24.3
2017-Jan-10 09:17N 26°44' W 058°36'0 0.0 24.3
2017-Jan-10 08:52N 26°44' W 058°36'2 3.2 24.4
2017-Jan-10 08:22N 26°43' W 058°35'1 3.4 24.3
2017-Jan-10 08:08N 26°44' W 058°35'1 0.9 24.4
2017-Jan-10 07:16N 26°43' W 058°35'0 0.0 24.3
2017-Jan-10 07:07N 26°43' W 058°35'248.3 24.3
2017-Jan-10 07:05N 26°42' W 058°34'0 0.0 24.4
2017-Jan-10 05:29N 26°42' W 058°34'1 0.1 24.4
2017-Jan-10 01:25N 26°41' W 058°34'0 0.0 24.4
2017-Jan-10 01:18N 26°41' W 058°34'0 0.0 24.4
2017-Jan-10 00:36N 26°41' W 058°34'1 7.2 24.4
2017-Jan-10 00:31N 26°41' W 058°34'0 0.0 24.4
2017-Jan-10 00:13N 26°41' W 058°34'0 0.0 24.4
2017-Jan-10 00:10N 26°41' W 058°34'0 0.0 24.4
2017-Jan-09 23:43N 26°41' W 058°34'0 0.0 24.4
2017-Jan-09 23:22N 26°41' W 058°34'1 0.8 24.4
2017-Jan-09 22:41N 26°41' W 058°33'0 0.0 24.4
2017-Jan-09 22:32N 26°41' W 058°33'0 0.0 24.4
2017-Jan-09 22:28N 26°41' W 058°33'   24.4

Dump ship's entire track history